• Join FlightAware (Why Join?)
  • Login
  • US Flag 
07:27AM EDT


 

Airport Tracker/Info


-or-


 

Live Flight TrackerFlight Track Log ✈ N8092E ✈ 03-May-2012 ✈ KHAO - KCKV

Flight Track Log - Related Links

Times and Time Zones

All times are in EDT time to prevent confusion due to time zone crossing. See the N8092E flight status page for this flight to view local times or setup timezone preferences in your user account.

Time Position Orientation Groundspeed Altitude Reporting Facility
EDT Latitude Longitude Course Direction KTS MPH feet Rate Location/Type
01:18PM 39.2333 -84.8333 218° Southwest 103 119 3,500  Level Cincinnati TRACON
01:19PM 39.2167 -84.8500 218° Southwest 102 117 3,600  Climbing Cincinnati TRACON
01:20PM 39.2000 -84.8667 218° Southwest 105 121 3,500 -60 Descending Cincinnati TRACON
01:21PM 39.1667 -84.9000 218° Southwest 105 121 3,500  Level Cincinnati TRACON
01:22PM 39.1500 -84.9167 218° Southwest 104 120 3,500  Level Cincinnati TRACON
01:23PM 39.1333 -84.9333 218° Southwest 106 122 3,500 -60 Level Cincinnati TRACON
01:24PM 39.1000 -84.9667 218° Southwest 106 122 3,400 -60 Descending Cincinnati TRACON
01:25PM 39.0833 -84.9833 218° Southwest 105 121 3,400  Level Cincinnati TRACON
01:26PM 39.0500 -85.0167 218° Southwest 106 122 3,500  Climbing Cincinnati TRACON
01:27PM 39.0333 -85.0333 237° Southwest 106 122 3,400  Descending Cincinnati TRACON
01:28PM 39.0167 -85.0667 201° Southwest 152 175 3,500  Climbing Cincinnati TRACON
01:29PM 38.9833 -85.0833 237° Southwest 115 132 3,400  Descending Cincinnati TRACON
01:30PM 38.9667 -85.1167 218° Southwest 104 120 3,500  Climbing Cincinnati TRACON
01:31PM 38.9500 -85.1333 223° Southwest 103 119 3,500 -60 Level Cincinnati TRACON
01:41PM 38.7508 -85.3736 254° West 109 125 3,400 -60 Descending FAA TRACON SMA TRACON (SMA)
01:41PM 38.7450 -85.4000 252° West 107 123 3,400  Level FAA TRACON SMA TRACON (SMA)
01:42PM 38.7392 -85.4231 249° West 113 130 3,400  Level FAA TRACON SMA TRACON (SMA)
01:43PM 38.7322 -85.4467 254° West 104 120 3,400  Level FAA TRACON SMA TRACON (SMA)
01:43PM 38.7269 -85.4703 248° West 118 136 3,400 120 Level FAA TRACON SMA TRACON (SMA)
01:44PM 38.7150 -85.5083 248° West 109 125 3,600 120 Climbing FAA TRACON SMA TRACON (SMA)
01:45PM 38.7083 -85.5300 247° West 109 125 3,600 -120 Level FAA TRACON SMA TRACON (SMA)
01:46PM 38.7006 -85.5533 248° West 105 121 3,500 -120 Descending FAA TRACON SMA TRACON (SMA)
01:46PM 38.6925 -85.5792 249° West 111 128 3,500  Level FAA TRACON SMA TRACON (SMA)
01:47PM 38.6858 -85.6017 248° West 109 125 3,500  Level FAA TRACON SMA TRACON (SMA)
01:48PM 38.6786 -85.6250 248° West 106 122 3,500  Level FAA TRACON SMA TRACON (SMA)
01:49PM 38.6644 -85.6708 248° West 106 122 3,500  Level FAA TRACON SMA TRACON (SMA)
01:50PM 38.6564 -85.6958 250° West 107 123 3,500  Level FAA TRACON SMA TRACON (SMA)
01:50PM 38.6492 -85.7208 245° Southwest 110 127 3,500 60 Level FAA TRACON SMA TRACON (SMA)
01:51PM 38.6422 -85.7403 249° West 103 119 3,600  Climbing FAA TRACON SMA TRACON (SMA)
01:52PM 38.6347 -85.7647 247° West 105 121 3,500  Descending FAA TRACON SMA TRACON (SMA)
01:52PM 38.6269 -85.7883 247° West 104 120 3,600  Climbing FAA TRACON SMA TRACON (SMA)
01:53PM 38.6197 -85.8106 249° West 108 124 3,500 -120 Descending FAA TRACON SMA TRACON (SMA)
01:54PM 38.6122 -85.8356 247° West 109 125 3,500  Level FAA TRACON SMA TRACON (SMA)
01:54PM 38.6047 -85.8583 246° West 103 119 3,500  Level FAA TRACON SMA TRACON (SMA)
01:55PM 38.5975 -85.8786 247° West 100 115 3,500 60 Level FAA TRACON SMA TRACON (SMA)
01:56PM 38.5903 -85.9008 247° West 99 114 3,600  Climbing FAA TRACON SMA TRACON (SMA)
01:56PM 38.5828 -85.9239 249° West 100 115 3,500 -120 Descending FAA TRACON SMA TRACON (SMA)
01:57PM 38.5764 -85.9447 247° West 101 116 3,500  Level FAA TRACON SMA TRACON (SMA)
01:58PM 38.5689 -85.9672 246° West 100 115 3,500 60 Level FAA TRACON SMA TRACON (SMA)
01:58PM 38.5606 -85.9917 248° West 108 124 3,600 60 Climbing FAA TRACON SMA TRACON (SMA)
01:59PM 38.5536 -86.0136 248° West 110 127 3,600  Level FAA TRACON SMA TRACON (SMA)
02:00PM 38.5464 -86.0369 229° Southwest 104 120 3,600 60 Level FAA TRACON SMA TRACON (SMA)
02:00PM 38.5333 -86.0564 211° Southwest 107 123 3,700 60 Climbing FAA TRACON SMA TRACON (SMA)
02:01PM 38.5161 -86.0697 211° Southwest 104 120 3,700 -180 Level FAA TRACON SMA TRACON (SMA)
02:02PM 38.5014 -86.0811 212° Southwest 103 119 3,500 -360 Descending FAA TRACON SMA TRACON (SMA)
02:02PM 38.4847 -86.0944 211° Southwest 101 116 3,300 -240 Descending FAA TRACON SMA TRACON (SMA)
02:03PM 38.4697 -86.1061 211° Southwest 105 121 3,200 -120 Descending FAA TRACON SMA TRACON (SMA)
02:04PM 38.4500 -86.1214 213° Southwest 115 132 3,200 -120 Level FAA TRACON SMA TRACON (SMA)
02:04PM 38.4333 -86.1353 212° Southwest 108 124 3,100 -120 Descending FAA TRACON SMA TRACON (SMA)
02:05PM 38.4164 -86.1486 209° Southwest 112 129 3,100 -120 Level FAA TRACON SMA TRACON (SMA)
02:06PM 38.3986 -86.1614 208° Southwest 108 124 3,000 -120 Descending FAA TRACON SMA TRACON (SMA)
02:06PM 38.3806 -86.1736 208° Southwest 104 120 3,000  Level FAA TRACON SMA TRACON (SMA)
02:07PM 38.3658 -86.1836 209° Southwest 99 114 3,000  Level FAA TRACON SMA TRACON (SMA)
02:08PM 38.3486 -86.1956 209° Southwest 102 117 3,000 60 Level FAA TRACON SMA TRACON (SMA)
02:08PM 38.3322 -86.2072 209° Southwest 97 112 3,100  Climbing FAA TRACON SMA TRACON (SMA)
02:09PM 38.3172 -86.2178 210° Southwest 97 112 3,000  Descending FAA TRACON SMA TRACON (SMA)
02:10PM 38.3000 -86.2303 208° Southwest 105 121 3,100 60 Climbing FAA TRACON SMA TRACON (SMA)
02:10PM 38.2814 -86.2428 209° Southwest 107 123 3,100 60 Level FAA TRACON SMA TRACON (SMA)
02:11PM 38.2667 -86.2533 207° Southwest 100 115 3,200 60 Climbing FAA TRACON SMA TRACON (SMA)
02:12PM 38.2483 -86.2653 214° Southwest 104 120 3,200 -180 Level FAA TRACON SMA TRACON (SMA)
02:12PM 38.2322 -86.2789 213° Southwest 102 117 3,000 -240 Descending FAA TRACON SMA TRACON (SMA)
02:13PM 38.2175 -86.2911 211° Southwest 104 120 2,900 -180 Descending FAA TRACON SMA TRACON (SMA)
02:14PM 38.2000 -86.3044 215° Southwest 107 123 2,800  Descending FAA TRACON SMA TRACON (SMA)
02:14PM 38.1839 -86.3186 215° Southwest 105 121 2,900 60 Climbing FAA TRACON SMA TRACON (SMA)
02:15PM 38.1706 -86.3306 212° Southwest 98 113 2,900  Level FAA TRACON SMA TRACON (SMA)
02:16PM 38.1536 -86.3442 209° Southwest 101 116 2,900 60 Level FAA TRACON SMA TRACON (SMA)
02:16PM 38.1364 -86.3564 208° Southwest 101 116 3,000 60 Climbing FAA TRACON SMA TRACON (SMA)
02:17PM 38.1214 -86.3667 209° Southwest 103 119 3,000  Level FAA TRACON SMA TRACON (SMA)
02:18PM 38.1031 -86.3794 207° Southwest 108 124 3,000 60 Level FAA TRACON SMA TRACON (SMA)
02:18PM 38.0850 -86.3911 206° Southwest 105 121 3,100  Climbing FAA TRACON SMA TRACON (SMA)
02:19PM 38.0689 -86.4011 207° Southwest 103 119 3,000 -120 Descending FAA TRACON SMA TRACON (SMA)
02:20PM 38.0522 -86.4119 205° Southwest 101 116 3,000 -180 Level FAA TRACON SMA TRACON (SMA)
02:20PM 38.0400 -86.4192 206° Southwest 102 117 2,800  Descending FAA TRACON SMA TRACON (SMA)
02:23PM 37.9781 -86.4581 208° Southwest 100 115 3,000 60 Climbing Indianapolis Center
02:24PM 37.9525 -86.4756 211° Southwest 100 115 3,100 60 Climbing Indianapolis Center
02:25PM 37.9292 -86.4931 208° Southwest 100 115 3,200  Climbing Indianapolis Center
02:26PM 37.9036 -86.5103 207° Southwest 106 122 3,200  Level Indianapolis Center
02:27PM 37.8761 -86.5278 212° Southwest 111 128 3,300  Climbing Indianapolis Center
02:28PM 37.8506 -86.5478 212° Southwest 111 128 3,300 -60 Level Indianapolis Center
02:29PM 37.8250 -86.5678 212° Southwest 111 128 3,200  Descending Indianapolis Center
02:30PM 37.7994 -86.5878 214° Southwest 111 128 3,300  Climbing Indianapolis Center
02:31PM 37.7758 -86.6078 208° Southwest 111 128 3,200 -60 Descending Indianapolis Center
02:32PM 37.7506 -86.6250 206° Southwest 111 128 3,200  Level Indianapolis Center
02:33PM 37.7228 -86.6422 214° Southwest 111 128 3,200 -60 Level Indianapolis Center
02:34PM 37.6994 -86.6622 205° Southwest 111 128 3,100 -120 Descending Indianapolis Center
02:35PM 37.6697 -86.6794 212° Southwest 111 128 3,000  Descending Indianapolis Center
02:36PM 37.6442 -86.6994 208° Southwest 111 128 3,100  Climbing Indianapolis Center
02:37PM 37.6186 -86.7167 215° Southwest 111 128 3,000 -60 Descending Indianapolis Center
02:38PM 37.5931 -86.7392 206° Southwest 116 133 3,000 -60 Level Indianapolis Center
02:39PM 37.5656 -86.7564 215° Southwest 116 133 2,900 -60 Descending Indianapolis Center
02:40PM 37.5397 -86.7789 211° Southwest 116 133 2,900  Level Indianapolis Center
02:41PM 37.5142 -86.7986 213° Southwest 116 133 3,000  Climbing Indianapolis Center
02:42PM 37.4928 -86.8161 215° Southwest 116 133 2,900  Descending Indianapolis Center
02:43PM 37.4672 -86.8386 211° Southwest 116 133 3,000  Climbing Indianapolis Center
02:44PM 37.4417 -86.8583 212° Southwest 116 133 3,000  Level Indianapolis Center
02:45PM 37.4161 -86.8781 210° Southwest 116 133 3,100 120 Climbing Indianapolis Center
02:45PM 37.3919 -86.8956 213° Southwest 110 127 3,200  Climbing Memphis Center
02:46PM 37.3653 -86.9175 210° Southwest 109 125 3,100  Descending Memphis Center
02:47PM 37.3389 -86.9369 212° Southwest 110 127 3,200  Climbing Memphis Center
02:48PM 37.3144 -86.9564 210° Southwest 109 125 3,100 -120 Descending Memphis Center
02:49PM 37.2878 -86.9756 207° Southwest 109 125 3,000 -60 Descending Memphis Center
02:50PM 37.2611 -86.9925 204° Southwest 104 120 3,000 -60 Level Memphis Center
02:52PM 37.2367 -87.0064 207° Southwest 104 120 2,900  Descending Memphis Center
02:53PM 37.2100 -87.0233 206° Southwest 104 120 3,000  Climbing Memphis Center
02:54PM 37.1833 -87.0400 205° Southwest 103 119 3,000 -60 Level Memphis Center
02:55PM 37.1547 -87.0569 202° Southwest 105 121 2,900 -60 Descending Memphis Center
02:56PM 37.1278 -87.0708 200° South 103 119 2,900 -60 Level Memphis Center
02:57PM 37.1033 -87.0822 202° Southwest 103 119 2,800 -60 Descending Memphis Center
02:58PM 37.0744 -87.0967 199° South 106 122 2,800  Level Memphis Center
02:59PM 37.0475 -87.1081 189° South 105 121 2,800  Level Memphis Center
03:00PM 37.0167 -87.1144 200° South 105 121 2,800  Level Memphis Center
03:01PM 36.9919 -87.1258 197° South 102 117 2,800  Level Memphis Center
03:02PM 36.9608 -87.1375 219° Southwest 105 121 2,800  Level Memphis Center
03:03PM 36.9364 -87.1619 221° Southwest 105 121 2,800  Level Memphis Center
03:04PM 36.9142 -87.1861 212° Southwest 103 119 2,800  Level Memphis Center
03:05PM 36.8897 -87.2053 218° Southwest 102 117 2,900  Climbing Memphis Center
03:06PM 36.8653 -87.2294 219° Southwest 104 120 2,800 -360 Descending Memphis Center
03:07PM 36.8408 -87.2539 210° Southwest 110 127 2,200 -480 Descending Memphis Center
03:08PM 36.8142 -87.2731 213° Southwest 114 131 1,900 -300 Descending Memphis Center
03:09PM 36.7878 -87.2947 229° Southwest 115 132 1,700 -240 Descending Memphis Center
03:10PM 36.7656 -87.3267 224° Southwest 123 142 1,500 -120 Descending Memphis Center
03:11PM 36.7453 -87.3508 214° Southwest 99 114 1,500  Level Memphis Center
03:12PM 36.7228 -87.3697 199° South 97 112 1,600 60 Climbing Memphis Center
03:13PM 36.6961 -87.3811 208° Southwest 100 115 1,700  Climbing Memphis Center
03:14PM 36.6672 -87.4003 220° Southwest 105 121 1,600 -240 Descending Memphis Center
03:15PM 36.6492 -87.4189 182° South 108 124 1,300 -480 Descending Memphis Center
03:16PM 36.6303 -87.4197 182° South 77 89 700 -600 Descending Memphis Center